createdAt,value
2024-03-12T00:02:49.624Z,9.26
2024-03-12T00:08:54.460Z,9.24
2024-03-12T00:15:20.011Z,9.21
2024-03-12T00:21:46.818Z,9.18
2024-03-12T00:28:11.401Z,9.16
2024-03-12T00:34:36.958Z,9.15
2024-03-12T00:40:46.523Z,9.14
2024-03-12T00:46:14.913Z,9.13
2024-03-12T00:51:31.541Z,9.10
2024-03-12T00:56:41.934Z,9.08
2024-03-12T01:02:59.695Z,9.07
2024-03-12T01:08:48.106Z,9.09
2024-03-12T01:14:39.266Z,9.05
2024-03-12T01:20:46.065Z,9.02
2024-03-12T01:26:25.993Z,9.00
2024-03-12T01:32:52.116Z,8.99
2024-03-12T01:39:05.222Z,8.97
2024-03-12T01:44:59.231Z,8.95
2024-03-12T01:51:05.574Z,8.92
2024-03-12T01:57:30.086Z,8.88
2024-03-12T02:03:55.260Z,8.83
2024-03-12T02:10:21.066Z,8.80
2024-03-12T02:15:59.649Z,8.78
2024-03-12T02:22:14.008Z,8.76
2024-03-12T02:27:52.745Z,8.68
2024-03-12T02:34:15.172Z,8.62
2024-03-12T02:40:17.258Z,8.58
2024-03-12T02:46:22.410Z,8.54
2024-03-12T02:52:39.590Z,8.52
2024-03-12T02:58:18.788Z,8.51
2024-03-12T03:04:16.192Z,8.48
2024-03-12T03:10:33.879Z,8.44
2024-03-12T03:16:39.735Z,8.40
2024-03-12T03:22:49.741Z,8.35
2024-03-12T03:28:57.935Z,8.27
2024-03-12T03:35:23.692Z,8.22
2024-03-12T03:41:48.713Z,8.18
2024-03-12T03:47:39.095Z,8.15
2024-03-12T03:53:45.044Z,8.10
2024-03-12T03:59:32.523Z,8.09
2024-03-12T04:05:16.146Z,8.11
2024-03-12T04:10:49.774Z,8.11
2024-03-12T04:16:58.809Z,8.11
2024-03-12T04:22:23.189Z,8.07
2024-03-12T04:27:38.326Z,8.03
2024-03-12T04:33:54.175Z,7.99
2024-03-12T04:39:44.168Z,7.98
2024-03-12T04:46:09.335Z,7.98
2024-03-12T04:52:35.235Z,7.97
2024-03-12T04:58:41.466Z,7.96
2024-03-12T05:04:46.842Z,7.93
2024-03-12T05:10:52.421Z,7.90
2024-03-12T05:17:18.733Z,7.86
2024-03-12T05:23:16.097Z,7.79
2024-03-12T05:29:34.504Z,7.72
2024-03-12T05:35:00.438Z,7.71
2024-03-12T05:40:54.104Z,7.68
2024-03-12T05:47:11.440Z,7.66
2024-03-12T05:53:06.412Z,7.63
2024-03-12T05:59:31.629Z,7.61
2024-03-12T06:05:29.904Z,7.60
2024-03-12T06:11:32.833Z,7.58
2024-03-12T06:17:58.642Z,7.57
2024-03-12T06:23:27.276Z,7.58
2024-03-12T06:29:53.044Z,7.56
2024-03-12T06:35:38.722Z,7.52
2024-03-12T06:40:49.807Z,7.50
2024-03-12T06:45:57.730Z,7.48
2024-03-12T06:52:11.496Z,7.47
2024-03-12T06:58:01.067Z,7.46
2024-03-12T07:03:30.596Z,7.46
2024-03-12T07:09:17.317Z,7.48
2024-03-12T07:15:04.616Z,7.50
2024-03-12T07:21:22.164Z,7.53
2024-03-12T07:27:32.998Z,7.53
2024-03-12T07:33:36.451Z,7.56
2024-03-12T07:40:02.914Z,7.57
2024-03-12T07:46:28.493Z,7.59
2024-03-12T07:52:17.971Z,7.59
2024-03-12T07:58:04.379Z,7.57
2024-03-12T08:04:13.166Z,7.52
2024-03-12T08:09:43.742Z,7.53
2024-03-12T08:15:08.144Z,7.57
2024-03-12T08:20:22.800Z,7.60
2024-03-12T08:26:36.820Z,7.63
2024-03-12T08:33:02.559Z,7.63
2024-03-12T08:39:28.767Z,7.65
2024-03-12T08:45:00.188Z,7.68
2024-03-12T08:50:17.281Z,7.66
2024-03-12T08:55:30.999Z,7.69
2024-03-12T09:00:48.564Z,7.71
2024-03-12T09:06:19.463Z,7.74
2024-03-12T09:12:08.534Z,7.78
2024-03-12T09:17:57.462Z,7.81
2024-03-12T09:24:02.891Z,7.81
2024-03-12T09:29:19.316Z,7.83
2024-03-12T09:34:26.927Z,7.88
2024-03-12T09:39:44.665Z,7.91
2024-03-12T09:44:59.217Z,7.95
2024-03-12T09:50:59.106Z,7.96
2024-03-12T09:56:39.953Z,8.01
2024-03-12T10:02:37.338Z,8.03
2024-03-12T10:09:08.757Z,8.07
2024-03-12T10:15:35.131Z,8.07
2024-03-12T10:21:59.700Z,8.08
2024-03-12T10:27:44.313Z,8.13
2024-03-12T10:34:11.104Z,8.08
2024-03-12T10:40:37.052Z,8.11
2024-03-12T10:45:57.671Z,8.08
2024-03-12T10:51:14.883Z,8.08
2024-03-12T10:56:34.086Z,8.14
2024-03-12T11:01:54.377Z,8.24
2024-03-12T11:07:04.626Z,8.26
2024-03-12T11:12:26.316Z,8.29
2024-03-12T11:18:13.970Z,8.36
2024-03-12T11:24:20.887Z,8.55
2024-03-12T11:30:52.981Z,8.65
2024-03-12T11:36:51.136Z,8.63
2024-03-12T11:42:44.367Z,8.67
2024-03-12T11:48:23.461Z,8.75
2024-03-12T11:54:32.526Z,8.87
2024-03-12T12:00:57.677Z,8.88
2024-03-12T12:07:18.242Z,8.90
2024-03-12T12:13:33.664Z,8.85
2024-03-12T12:19:45.475Z,8.86
2024-03-12T12:26:11.609Z,8.89
2024-03-12T12:31:59.652Z,8.96
2024-03-12T12:37:22.111Z,9.08
2024-03-12T12:42:51.434Z,9.13
2024-03-12T12:48:25.922Z,9.21
2024-03-12T12:54:43.881Z,9.30
2024-03-12T13:00:51.509Z,9.38
2024-03-12T13:07:05.773Z,9.43
2024-03-12T13:13:32.277Z,9.52
2024-03-12T13:19:03.143Z,9.71
2024-03-12T13:24:33.811Z,9.76
2024-03-12T13:30:30.492Z,9.82
2024-03-12T13:35:45.090Z,9.91
2024-03-12T13:41:10.725Z,10.03
2024-03-12T13:46:31.008Z,10.17
2024-03-12T13:52:56.764Z,10.25
2024-03-12T13:58:27.735Z,10.26
2024-03-12T14:03:56.636Z,10.29
2024-03-12T14:09:39.331Z,10.30
2024-03-12T14:15:56.772Z,10.35
2024-03-12T14:22:02.208Z,10.43
2024-03-12T14:27:37.907Z,10.40
2024-03-12T14:33:45.888Z,10.35
2024-03-12T14:39:17.676Z,10.31
2024-03-12T14:44:48.735Z,10.33
2024-03-12T14:50:21.045Z,10.38
2024-03-12T14:55:48.209Z,10.39
2024-03-12T15:01:30.656Z,10.37
2024-03-12T15:07:04.887Z,10.36
2024-03-12T15:12:12.434Z,10.31
2024-03-12T15:17:42.078Z,10.28
2024-03-12T15:23:07.255Z,10.24
2024-03-12T15:28:34.340Z,10.24
2024-03-12T15:33:45.513Z,10.23
2024-03-12T15:39:52.467Z,10.23
2024-03-12T15:45:22.470Z,10.23
2024-03-12T15:50:46.031Z,10.24
2024-03-12T15:56:34.473Z,10.23
2024-03-12T16:01:57.683Z,10.21
2024-03-12T16:08:07.438Z,10.20
2024-03-12T16:14:21.798Z,10.17
2024-03-12T16:20:15.417Z,10.15
2024-03-12T16:26:35.176Z,10.11
2024-03-12T16:32:44.786Z,10.06
2024-03-12T16:38:25.771Z,10.00
2024-03-12T16:43:59.774Z,9.95
2024-03-12T16:50:07.625Z,9.89
2024-03-12T16:55:52.430Z,9.82
2024-03-12T17:01:40.038Z,9.78
2024-03-12T17:07:34.027Z,9.71
2024-03-12T17:13:32.756Z,9.62
2024-03-12T17:18:59.690Z,9.51
2024-03-12T17:24:45.071Z,9.43
2024-03-12T17:30:18.407Z,9.39
2024-03-12T17:35:54.706Z,9.34
2024-03-12T17:41:28.845Z,9.29
2024-03-12T17:47:16.389Z,9.24
2024-03-12T17:53:16.927Z,9.19
2024-03-12T17:59:02.254Z,9.10
2024-03-12T18:05:17.860Z,9.04
2024-03-12T18:11:17.181Z,8.98
2024-03-12T18:16:45.889Z,8.82
2024-03-12T18:22:24.756Z,8.77
2024-03-12T18:27:57.450Z,8.73
2024-03-12T18:34:05.606Z,8.64
2024-03-12T18:40:19.005Z,8.46
2024-03-12T18:45:54.214Z,8.33
2024-03-12T18:51:52.993Z,8.18
2024-03-12T18:57:52.390Z,8.10
2024-03-12T19:03:23.454Z,7.99
2024-03-12T19:08:41.596Z,7.95
2024-03-12T19:14:38.123Z,7.97
2024-03-12T19:20:44.857Z,7.93
2024-03-12T19:27:17.182Z,7.80
2024-03-12T19:32:47.628Z,7.77
2024-03-12T19:38:16.984Z,7.73
2024-03-12T19:43:51.602Z,7.71
2024-03-12T19:49:21.504Z,7.72
2024-03-12T19:54:59.163Z,7.68
2024-03-12T20:00:54.414Z,7.65
2024-03-12T20:06:06.920Z,7.59
2024-03-12T20:11:34.456Z,7.57
2024-03-12T20:17:01.837Z,7.58
2024-03-12T20:22:12.469Z,7.56
2024-03-12T20:27:22.702Z,7.48
2024-03-12T20:33:00.417Z,7.35
2024-03-12T20:38:31.114Z,7.32
2024-03-12T20:43:37.403Z,7.30
2024-03-12T20:49:04.612Z,7.29
2024-03-12T20:54:10.429Z,7.27
2024-03-12T21:00:08.595Z,7.27
2024-03-12T21:05:24.431Z,7.29
2024-03-12T21:10:45.488Z,7.30
2024-03-12T21:16:32.165Z,7.27
2024-03-12T21:21:37.104Z,7.15
2024-03-12T21:27:46.217Z,7.07
2024-03-12T21:33:48.615Z,7.02
2024-03-12T21:39:55.906Z,7.07
2024-03-12T21:45:35.551Z,7.07
2024-03-12T21:51:16.902Z,6.96
2024-03-12T21:56:42.328Z,6.93
2024-03-12T22:02:52.585Z,6.94
2024-03-12T22:09:08.357Z,6.94
2024-03-12T22:14:56.813Z,6.92
2024-03-12T22:21:05.288Z,6.93
2024-03-12T22:27:30.014Z,6.99
2024-03-12T22:32:45.522Z,7.01
2024-03-12T22:37:57.151Z,7.03
2024-03-12T22:43:04.590Z,7.09
2024-03-12T22:48:29.806Z,7.15
2024-03-12T22:53:46.790Z,7.18
2024-03-12T22:59:14.768Z,7.23
2024-03-12T23:04:55.689Z,7.25
2024-03-12T23:11:03.956Z,7.25
2024-03-12T23:17:29.485Z,7.27
2024-03-12T23:23:12.117Z,7.29
2024-03-12T23:28:45.328Z,7.26
2024-03-12T23:34:36.188Z,7.16
2024-03-12T23:40:37.756Z,7.04
2024-03-12T23:46:54.951Z,6.97
2024-03-12T23:52:22.212Z,6.85
2024-03-12T23:57:41.422Z,6.78
